Time;durP1;ratioP1;P1;durP2;ratioP2;P2;SDS_P1;SDS_P2;PMS_P1;PMS_P2;Temp;Humidity;BMP_temperature;BMP_pressure;BME280_temperature;BME280_humidity;BME280_pressure;Samples;Min_cycle;Max_cycle;Signal;HPM_P1;HPM_P2
2020/12/19 00:02:08;;;;;;;47.10;21.08;;;4.50;99.90;;;;;;10297575;28;20050;-70
2020/12/19 00:07:15;;;;;;;43.53;19.45;;;4.40;99.90;;;;;;10285684;28;20047;-69
2020/12/19 00:12:20;;;;;;;37.85;18.13;;;4.50;99.90;;;;;;10289834;28;20062;-70
2020/12/19 00:17:22;;;;;;;48.22;21.20;;;4.50;99.90;;;;;;10285056;28;20524;-70
2020/12/19 00:22:23;;;;;;;46.95;20.23;;;4.50;99.90;;;;;;10290773;28;20122;-70
2020/12/19 00:27:24;;;;;;;39.95;18.90;;;4.40;99.90;;;;;;10302457;28;20504;-70
2020/12/19 00:32:26;;;;;;;32.10;17.02;;;4.40;99.90;;;;;;10294515;28;20042;-70
2020/12/19 00:37:28;;;;;;;36.10;18.20;;;4.40;99.90;;;;;;10290987;28;20145;-69
2020/12/19 00:42:30;;;;;;;34.90;16.63;;;4.40;99.90;;;;;;10286092;28;20058;-69
2020/12/19 00:47:34;;;;;;;35.53;17.55;;;4.30;99.90;;;;;;10291787;28;20062;-70
2020/12/19 00:52:36;;;;;;;44.90;18.77;;;4.20;99.90;;;;;;10283015;28;20770;-70
2020/12/19 00:57:38;;;;;;;41.25;20.02;;;4.10;99.90;;;;;;10277636;28;20045;-70
2020/12/19 01:02:39;;;;;;;44.08;19.70;;;4.10;99.90;;;;;;10294429;28;20046;-69
2020/12/19 01:07:47;;;;;;;45.00;19.17;;;4.00;99.90;;;;;;10290348;28;20113;-70
2020/12/19 01:12:48;;;;;;;41.85;19.50;;;4.00;99.90;;;;;;10283440;28;20047;-70
2020/12/19 01:17:50;;;;;;;48.05;20.40;;;3.90;99.90;;;;;;10286253;28;20050;-70
2020/12/19 01:22:52;;;;;;;44.13;20.65;;;3.80;99.90;;;;;;10279521;28;20134;-69
2020/12/19 01:27:54;;;;;;;53.10;20.88;;;3.70;99.90;;;;;;10284737;28;20046;-70
2020/12/19 01:32:55;;;;;;;41.33;19.42;;;3.60;99.90;;;;;;10285964;28;20058;-70
2020/12/19 01:38:10;;;;;;;50.25;19.83;;;3.40;99.90;;;;;;10283620;28;20051;-69
2020/12/19 01:43:11;;;;;;;58.60;23.58;;;3.30;99.90;;;;;;10284249;28;20053;-70
2020/12/19 01:48:24;;;;;;;43.28;18.48;;;3.30;99.90;;;;;;10282265;28;20468;-69
2020/12/19 01:53:25;;;;;;;53.15;21.20;;;3.20;99.90;;;;;;10280151;28;20061;-69
2020/12/19 01:58:26;;;;;;;48.47;20.73;;;3.10;99.90;;;;;;10284557;28;20055;-70
2020/12/19 02:03:28;;;;;;;53.35;22.10;;;3.00;99.90;;;;;;10279845;28;20058;-69
2020/12/19 02:08:30;;;;;;;56.13;22.80;;;3.00;99.90;;;;;;10282436;28;20583;-69
2020/12/19 02:13:31;;;;;;;57.10;21.90;;;3.00;99.90;;;;;;10281433;28;20568;-69
2020/12/19 02:18:33;;;;;;;50.92;21.55;;;3.00;99.90;;;;;;10281464;28;20054;-69
2020/12/19 02:23:34;;;;;;;44.70;18.90;;;3.10;99.90;;;;;;10280628;28;20070;-69
2020/12/19 02:28:36;;;;;;;41.92;19.10;;;3.20;99.90;;;;;;10277385;28;20057;-69
2020/12/19 02:33:37;;;;;;;44.00;19.17;;;3.10;99.90;;;;;;10284328;28;20065;-69
2020/12/19 02:38:41;;;;;;;38.17;16.42;;;3.10;99.90;;;;;;10282029;28;20481;-69
2020/12/19 02:43:50;;;;;;;35.10;15.43;;;3.20;99.90;;;;;;10271906;28;20474;-69
2020/12/19 02:48:51;;;;;;;31.10;16.00;;;3.20;99.90;;;;;;10284600;28;20046;-69
2020/12/19 02:53:53;;;;;;;33.63;14.75;;;3.20;99.90;;;;;;10284369;28;20050;-69
2020/12/19 02:58:54;;;;;;;32.05;14.50;;;3.30;99.90;;;;;;10284072;28;20046;-69
2020/12/19 03:03:58;;;;;;;34.13;14.30;;;3.30;99.90;;;;;;10280120;28;20038;-69
2020/12/19 03:09:05;;;;;;;35.17;15.40;;;3.30;99.90;;;;;;10275625;28;20094;-69
2020/12/19 03:14:07;;;;;;;29.05;14.32;;;3.30;99.90;;;;;;10280975;28;20226;-69
2020/12/19 03:19:17;;;;;;;30.13;14.93;;;3.40;99.90;;;;;;10275012;28;20053;-69
2020/12/19 03:24:19;;;;;;;32.75;14.45;;;3.50;99.90;;;;;;10289780;28;20046;-69
2020/12/19 03:29:20;;;;;;;28.48;12.75;;;3.50;99.90;;;;;;10275862;28;20120;-70
2020/12/19 03:34:21;;;;;;;24.27;12.85;;;3.60;99.90;;;;;;10278557;28;20579;-69
2020/12/19 03:39:23;;;;;;;28.58;15.30;;;3.70;99.90;;;;;;10277890;28;20057;-69
2020/12/19 03:44:24;;;;;;;33.47;17.45;;;3.70;99.90;;;;;;10283141;28;20042;-69
2020/12/19 03:49:25;;;;;;;30.75;16.27;;;3.80;99.90;;;;;;10282139;28;20145;-69
2020/12/19 03:54:26;;;;;;;30.30;15.82;;;3.80;99.90;;;;;;10279049;28;20047;-69
2020/12/19 03:59:27;;;;;;;28.98;14.88;;;3.90;99.90;;;;;;10281146;28;20054;-69
2020/12/19 04:04:29;;;;;;;26.98;14.40;;;4.00;99.90;;;;;;10282075;28;20042;-69
2020/12/19 04:09:34;;;;;;;26.65;13.10;;;4.00;99.90;;;;;;10274436;28;20061;-69
2020/12/19 04:14:39;;;;;;;26.33;13.00;;;4.10;99.90;;;;;;10281250;28;20065;-70
2020/12/19 04:19:41;;;;;;;23.70;12.02;;;4.20;99.90;;;;;;10283678;28;20072;-70
2020/12/19 04:24:43;;;;;;;22.42;11.68;;;4.30;99.90;;;;;;10279921;28;20068;-70
2020/12/19 04:29:44;;;;;;;22.65;12.77;;;4.30;99.90;;;;;;10285858;28;20133;-70
2020/12/19 04:34:46;;;;;;;21.60;11.65;;;4.40;99.90;;;;;;10289331;28;20110;-70
2020/12/19 04:39:55;;;;;;;21.13;12.50;;;4.50;99.90;;;;;;10279279;28;20066;-68
2020/12/19 04:44:57;;;;;;;22.15;12.52;;;4.50;99.90;;;;;;10287258;28;20047;-69
2020/12/19 04:49:59;;;;;;;21.52;11.88;;;4.60;99.90;;;;;;10284575;28;20059;-69
2020/12/19 04:55:01;;;;;;;20.40;11.15;;;4.60;99.90;;;;;;10288376;28;20054;-69
2020/12/19 05:00:05;;;;;;;23.42;12.63;;;4.70;99.90;;;;;;10283464;28;20790;-69
2020/12/19 05:05:06;;;;;;;24.05;15.10;;;4.70;99.90;;;;;;10282494;28;20068;-69
2020/12/19 05:10:15;;;;;;;26.08;14.13;;;4.80;99.90;;;;;;10283832;28;20390;-69
2020/12/19 05:15:17;;;;;;;21.75;12.63;;;4.80;99.90;;;;;;10283095;28;20409;-69
2020/12/19 05:20:23;;;;;;;21.10;11.98;;;4.80;99.90;;;;;;10288777;28;20648;-69
2020/12/19 05:25:27;;;;;;;23.23;11.53;;;4.90;99.90;;;;;;10282577;28;20101;-69
2020/12/19 05:30:29;;;;;;;22.83;12.43;;;4.90;99.90;;;;;;10284161;28;20512;-69
2020/12/19 05:35:30;;;;;;;19.83;12.38;;;4.80;99.90;;;;;;10277753;28;20054;-68
2020/12/19 05:40:34;;;;;;;21.10;12.30;;;4.70;99.90;;;;;;10284284;28;20065;-69
2020/12/19 05:45:35;;;;;;;21.77;12.48;;;4.80;99.90;;;;;;10279804;28;20058;-69
2020/12/19 05:50:36;;;;;;;22.20;11.63;;;4.70;99.90;;;;;;10278125;28;20165;-69
2020/12/19 05:55:38;;;;;;;21.52;12.25;;;4.60;99.90;;;;;;10281909;28;20054;-68
2020/12/19 06:00:40;;;;;;;22.80;13.05;;;4.60;99.90;;;;;;10285838;28;20053;-68
2020/12/19 06:05:42;;;;;;;20.67;12.15;;;4.60;99.90;;;;;;10289200;28;20070;-68
2020/12/19 06:10:52;;;;;;;23.17;12.90;;;4.50;99.90;;;;;;10286896;28;20050;-68
2020/12/19 06:16:11;;;;;;;22.63;12.55;;;4.50;99.90;;;;;;10279660;28;20054;-68
2020/12/19 06:21:12;;;;;;;23.02;12.50;;;4.40;99.90;;;;;;10279211;28;20051;-68
2020/12/19 06:26:14;;;;;;;24.23;13.40;;;4.40;99.90;;;;;;10279156;28;20051;-68
2020/12/19 06:31:21;;;;;;;22.52;12.40;;;4.40;99.90;;;;;;10279963;28;20050;-68
2020/12/19 06:36:27;;;;;;;24.47;13.53;;;4.40;99.90;;;;;;10280669;28;20054;-69
2020/12/19 06:41:43;;;;;;;22.23;12.73;;;4.50;99.90;;;;;;10282940;28;20082;-68
2020/12/19 06:46:45;;;;;;;29.50;13.73;;;4.40;99.90;;;;;;10280793;28;20078;-68
2020/12/19 06:52:09;;;;;;;32.22;17.67;;;4.30;99.90;;;;;;10275477;28;20049;-69
2020/12/19 06:57:30;;;;;;;41.13;22.98;;;4.10;99.90;;;;;;10209373;28;20043;-69
2020/12/19 07:02:31;;;;;;;30.83;14.90;;;4.00;99.90;;;;;;10235767;28;20050;-69
2020/12/19 07:07:32;;;;;;;31.88;16.55;;;3.90;99.90;;;;;;10284415;28;20420;-68
2020/12/19 07:12:38;;;;;;;33.25;16.25;;;3.80;99.90;;;;;;10283411;28;20054;-69
2020/12/19 07:17:49;;;;;;;32.70;15.43;;;3.70;99.90;;;;;;10294314;28;20046;-68
2020/12/19 07:22:51;;;;;;;32.03;15.38;;;3.60;99.90;;;;;;10278183;28;20072;-64
2020/12/19 07:27:55;;;;;;;31.20;15.10;;;4.90;99.90;;;;;;10285902;28;20472;-64
2020/12/19 07:32:57;;;;;;;28.40;14.02;;;3.50;99.90;;;;;;10279221;28;20061;-65
2020/12/19 07:37:58;;;;;;;33.80;15.82;;;3.40;99.90;;;;;;10283185;28;20058;-64
2020/12/19 07:43:02;;;;;;;31.50;15.50;;;3.40;99.90;;;;;;10278428;28;20046;-65
2020/12/19 07:48:04;;;;;;;33.67;15.65;;;3.30;99.90;;;;;;10281815;28;20113;-64
2020/12/19 07:53:07;;;;;;;32.33;14.27;;;3.30;99.90;;;;;;10279144;28;20066;-66
2020/12/19 07:58:09;;;;;;;28.40;14.90;;;3.30;99.90;;;;;;10282739;28;20055;-66
2020/12/19 08:03:12;;;;;;;30.75;14.98;;;3.30;99.90;;;;;;10287443;28;20138;-64
2020/12/19 08:08:14;;;;;;;24.45;14.13;;;3.30;99.90;;;;;;10288927;28;20050;-65
2020/12/19 08:13:16;;;;;;;27.65;14.65;;;3.40;99.90;;;;;;10280589;28;20043;-65
2020/12/19 08:18:18;;;;;;;28.42;15.25;;;3.40;99.90;;;;;;10287705;28;20744;-65
2020/12/19 08:23:20;;;;;;;31.48;14.90;;;3.40;99.90;;;;;;10296757;28;20050;-65
2020/12/19 08:28:21;;;;;;;26.10;13.95;;;3.40;99.90;;;;;;10298684;28;20061;-65
2020/12/19 08:33:28;;;;;;;30.52;15.82;;;3.50;99.90;;;;;;10288738;28;20058;-65
2020/12/19 08:38:31;;;;;;;27.90;16.63;;;3.60;99.90;;;;;;10292259;28;20493;-65
2020/12/19 08:43:35;;;;;;;28.10;15.02;;;3.60;99.90;;;;;;10292096;28;20048;-64
2020/12/19 08:48:37;;;;;;;27.98;15.10;;;3.80;99.90;;;;;;10290814;28;20061;-64
2020/12/19 08:53:38;;;;;;;27.65;13.75;;;3.90;99.90;;;;;;10283721;28;20071;-70
2020/12/19 08:58:40;;;;;;;19.92;12.57;;;4.20;99.90;;;;;;10277659;28;20125;-68
2020/12/19 09:03:43;;;;;;;26.05;14.23;;;4.30;99.90;;;;;;10277441;28;20137;-68
2020/12/19 09:08:48;;;;;;;25.55;14.20;;;4.40;99.90;;;;;;10280815;28;20054;-69
2020/12/19 09:13:50;;;;;;;29.00;14.50;;;4.40;99.90;;;;;;10278056;28;20519;-69
2020/12/19 09:18:51;;;;;;;23.95;13.55;;;4.40;99.90;;;;;;10283006;28;20137;-65
2020/12/19 09:23:53;;;;;;;26.40;15.20;;;4.40;99.90;;;;;;10289996;28;20140;-65
2020/12/19 09:28:54;;;;;;;26.25;14.82;;;4.40;99.90;;;;;;10288504;28;20493;-64
2020/12/19 09:33:55;;;;;;;22.33;12.38;;;4.40;99.90;;;;;;10289897;28;20054;-64
2020/12/19 09:38:57;;;;;;;22.13;13.15;;;4.40;99.90;;;;;;10290405;28;20042;-64
2020/12/19 09:43:58;;;;;;;17.48;11.95;;;4.60;99.90;;;;;;10285370;28;20054;-64
2020/12/19 09:49:00;;;;;;;17.23;11.90;;;4.60;99.90;;;;;;10279969;28;20054;-64
2020/12/19 09:54:01;;;;;;;19.02;11.68;;;4.60;99.90;;;;;;10284946;28;20469;-64
2020/12/19 09:59:03;;;;;;;19.20;10.73;;;4.70;99.90;;;;;;10286133;28;20069;-64
2020/12/19 10:04:04;;;;;;;17.35;11.07;;;4.80;99.90;;;;;;10277634;28;20050;-64
2020/12/19 10:09:06;;;;;;;18.45;10.88;;;4.90;99.90;;;;;;10290568;28;20062;-64
2020/12/19 10:14:07;;;;;;;15.88;10.35;;;4.90;99.90;;;;;;10278834;28;20038;-64
2020/12/19 10:19:08;;;;;;;20.13;10.00;;;5.10;99.90;;;;;;10280941;28;20054;-64
2020/12/19 10:24:09;;;;;;;16.38;10.55;;;5.30;99.90;;;;;;10276947;28;20245;-64
2020/12/19 10:29:10;;;;;;;16.50;10.45;;;5.40;99.90;;;;;;10283664;28;20051;-64
2020/12/19 10:34:12;;;;;;;15.48;10.30;;;5.70;99.90;;;;;;10285585;28;20058;-64
2020/12/19 10:39:13;;;;;;;15.63;10.10;;;5.80;99.90;;;;;;10279995;28;20482;-64
2020/12/19 10:44:15;;;;;;;15.23;9.85;;;5.90;99.90;;;;;;10283267;28;20401;-64
2020/12/19 10:49:18;;;;;;;15.13;9.55;;;5.90;99.90;;;;;;10278801;28;20057;-65
2020/12/19 10:54:19;;;;;;;13.90;9.50;;;5.80;99.90;;;;;;10293178;28;20054;-65
2020/12/19 10:59:29;;;;;;;13.90;9.30;;;5.80;99.90;;;;;;10289757;28;20956;-65
2020/12/19 11:04:31;;;;;;;17.55;9.10;;;5.90;99.90;;;;;;10288233;28;20046;-65
2020/12/19 11:09:32;;;;;;;13.30;8.90;;;6.00;99.90;;;;;;10291035;28;20097;-65
2020/12/19 11:14:33;;;;;;;15.85;8.90;;;6.10;99.90;;;;;;10288745;28;20054;-65
2020/12/19 11:19:34;;;;;;;12.05;8.70;;;6.00;99.90;;;;;;10292583;28;20048;-65
2020/12/19 11:24:35;;;;;;;17.02;10.52;;;6.10;99.90;;;;;;10294214;28;20547;-65
2020/12/19 11:29:37;;;;;;;16.73;9.75;;;6.30;99.90;;;;;;10291686;28;20046;-65
2020/12/19 11:34:38;;;;;;;14.18;9.35;;;6.40;99.90;;;;;;10289624;28;20550;-65
2020/12/19 11:39:39;;;;;;;16.92;9.80;;;6.30;99.90;;;;;;10291145;28;20058;-66
2020/12/19 11:44:41;;;;;;;14.52;10.25;;;6.30;99.90;;;;;;10290385;28;20165;-66
2020/12/19 11:49:42;;;;;;;15.27;9.82;;;6.30;99.90;;;;;;10288203;28;20452;-66
2020/12/19 11:54:43;;;;;;;14.45;9.90;;;6.30;99.90;;;;;;10291209;28;20061;-65
2020/12/19 11:59:45;;;;;;;13.90;9.82;;;6.40;99.90;;;;;;10290966;28;20133;-65
2020/12/19 12:04:46;;;;;;;14.30;10.43;;;6.40;99.90;;;;;;10294515;28;20098;-65
2020/12/19 12:09:47;;;;;;;14.13;10.05;;;6.50;99.90;;;;;;10290982;28;20046;-66
2020/12/19 12:14:48;;;;;;;16.77;9.82;;;6.70;99.90;;;;;;10294685;28;20047;-65
2020/12/19 12:19:50;;;;;;;15.02;9.35;;;6.80;99.90;;;;;;10291014;28;20061;-65
2020/12/19 12:24:51;;;;;;;14.05;8.35;;;8.40;99.90;;;;;;10285899;28;20497;-66
2020/12/19 12:29:52;;;;;;;10.48;7.70;;;7.00;99.90;;;;;;10289048;28;20429;-65
2020/12/19 12:34:53;;;;;;;12.40;8.30;;;6.90;99.90;;;;;;10286743;28;20113;-64
2020/12/19 12:39:54;;;;;;;13.55;9.45;;;6.90;99.90;;;;;;10292518;28;20048;-64
2020/12/19 12:44:56;;;;;;;13.18;9.30;;;7.00;99.90;;;;;;10295765;28;20410;-64
2020/12/19 12:49:57;;;;;;;12.63;8.65;;;6.90;99.90;;;;;;10298292;28;20050;-64
2020/12/19 12:54:58;;;;;;;12.30;8.55;;;7.00;99.90;;;;;;10297846;28;20062;-63
2020/12/19 12:59:59;;;;;;;11.45;8.63;;;7.10;99.90;;;;;;10299754;28;20137;-65
2020/12/19 13:05:00;;;;;;;12.93;8.10;;;7.30;99.90;;;;;;10298962;28;20045;-65
2020/12/19 13:10:02;;;;;;;10.27;7.53;;;7.40;99.90;;;;;;10296247;28;20057;-65
2020/12/19 13:15:05;;;;;;;14.25;8.10;;;7.70;99.90;;;;;;10289154;28;20047;-65
2020/12/19 13:20:06;;;;;;;13.60;8.73;;;7.80;99.90;;;;;;10294890;28;20060;-65
2020/12/19 13:25:08;;;;;;;12.05;8.40;;;7.90;99.90;;;;;;10295150;28;20058;-65
2020/12/19 13:30:09;;;;;;;13.45;9.27;;;7.80;99.90;;;;;;10296059;28;20296;-65
2020/12/19 13:35:10;;;;;;;13.30;8.32;;;7.90;99.90;;;;;;10295568;28;20057;-65
2020/12/19 13:40:13;;;;;;;10.15;8.05;;;7.80;99.90;;;;;;10296331;28;20496;-65
2020/12/19 13:45:19;;;;;;;12.40;8.43;;;7.90;99.90;;;;;;10291132;28;20054;-65
2020/12/19 13:50:20;;;;;;;12.50;8.07;;;7.90;99.90;;;;;;10293698;28;20065;-65
2020/12/19 13:55:22;;;;;;;11.88;8.30;;;8.00;99.90;;;;;;10290846;28;20059;-65
2020/12/19 14:00:23;;;;;;;9.75;7.95;;;8.00;99.90;;;;;;10296129;28;20405;-65
2020/12/19 14:05:24;;;;;;;11.23;8.02;;;8.00;99.90;;;;;;10294551;28;20178;-65
2020/12/19 14:10:26;;;;;;;10.88;8.73;;;8.10;99.90;;;;;;10294205;28;20050;-67
2020/12/19 14:15:37;;;;;;;11.38;7.45;;;8.10;99.90;;;;;;10292407;28;21535;-66
2020/12/19 14:20:40;;;;;;;11.35;8.60;;;8.00;99.90;;;;;;10296388;28;20082;-65
2020/12/19 14:25:44;;;;;;;13.40;7.95;;;8.00;99.90;;;;;;10294352;28;20074;-65
2020/12/19 14:30:46;;;;;;;11.38;7.68;;;7.90;99.90;;;;;;10291838;28;20061;-65
2020/12/19 14:35:47;;;;;;;10.98;8.02;;;7.80;99.90;;;;;;10293558;28;20504;-65
2020/12/19 14:40:48;;;;;;;12.95;9.23;;;7.80;99.90;;;;;;10290463;28;20062;-65
2020/12/19 14:45:59;;;;;;;14.88;9.10;;;7.80;99.90;;;;;;10292799;28;20504;-64
2020/12/19 14:51:00;;;;;;;17.80;8.90;;;7.70;99.90;;;;;;10294977;28;20062;-64
2020/12/19 14:56:01;;;;;;;12.20;7.88;;;7.70;99.90;;;;;;10296285;28;20053;-64
2020/12/19 15:01:04;;;;;;;13.45;9.48;;;7.70;99.90;;;;;;10293023;28;20058;-65
2020/12/19 15:06:07;;;;;;;12.07;9.27;;;7.60;99.90;;;;;;10292186;28;20042;-64
2020/12/19 15:11:15;;;;;;;15.20;9.18;;;7.60;99.90;;;;;;10294488;28;20050;-64
2020/12/19 15:16:17;;;;;;;19.27;9.23;;;7.60;99.90;;;;;;10294565;28;20049;-64
2020/12/19 15:21:19;;;;;;;12.60;9.00;;;7.50;99.90;;;;;;10288420;28;20126;-64
2020/12/19 15:26:25;;;;;;;17.10;8.02;;;7.50;99.90;;;;;;10290614;28;20378;-64
2020/12/19 15:31:27;;;;;;;14.85;8.40;;;7.70;99.90;;;;;;10287473;28;20601;-64
2020/12/19 15:36:28;;;;;;;11.98;7.75;;;7.60;99.90;;;;;;10293080;28;20057;-65
2020/12/19 15:41:29;;;;;;;13.30;7.85;;;7.50;99.90;;;;;;10292848;28;20408;-65
2020/12/19 15:46:30;;;;;;;12.43;8.63;;;7.40;99.90;;;;;;10292922;28;20061;-68
2020/12/19 15:51:32;;;;;;;13.40;9.18;;;7.20;99.90;;;;;;10288861;28;20051;-68
2020/12/19 15:56:33;;;;;;;17.08;10.45;;;7.10;99.90;;;;;;10294232;28;20053;-69
2020/12/19 16:01:36;;;;;;;13.68;8.73;;;7.00;99.90;;;;;;10288985;28;20453;-69
2020/12/19 16:06:39;;;;;;;11.85;8.23;;;6.80;99.90;;;;;;10291360;28;20050;-69
2020/12/19 16:11:40;;;;;;;12.80;8.98;;;6.80;99.90;;;;;;10291632;28;20152;-68
2020/12/19 16:16:48;;;;;;;;;;;6.70;99.90;;;;;;10289934;28;20143;-67
2020/12/19 16:21:49;;;;;;;13.80;8.82;;;6.50;99.90;;;;;;10293083;28;19937;-68
2020/12/19 16:26:51;;;;;;;14.02;8.85;;;6.30;99.90;;;;;;10309206;28;20046;-68
2020/12/19 16:31:53;;;;;;;15.63;10.07;;;6.10;99.90;;;;;;10306315;28;20047;-69
2020/12/19 16:36:54;;;;;;;15.23;9.48;;;6.00;99.90;;;;;;10301022;28;20053;-68
2020/12/19 16:41:56;;;;;;;14.35;9.85;;;5.80;99.90;;;;;;10301336;28;20046;-68
2020/12/19 16:47:04;;;;;;;13.48;8.82;;;5.70;99.90;;;;;;10297690;28;20058;-69
2020/12/19 16:52:06;;;;;;;15.60;9.48;;;5.60;99.90;;;;;;10279535;28;20100;-69
2020/12/19 16:57:07;;;;;;;15.25;9.25;;;5.50;99.90;;;;;;10299182;28;21891;-69
2020/12/19 17:02:11;;;;;;;16.80;10.00;;;5.50;99.90;;;;;;10293897;28;20129;-69
2020/12/19 17:07:12;;;;;;;18.70;9.48;;;5.50;99.90;;;;;;10300832;28;20050;-70
2020/12/19 17:12:14;;;;;;;14.10;8.57;;;5.40;99.90;;;;;;10302300;28;20065;-69
2020/12/19 17:17:18;;;;;;;12.35;8.57;;;5.40;99.90;;;;;;10295513;28;20073;-68
2020/12/19 17:22:20;;;;;;;15.50;9.95;;;5.40;99.90;;;;;;10297351;28;20057;-68
2020/12/19 17:27:21;;;;;;;15.73;10.30;;;5.40;99.90;;;;;;10292124;28;20497;-68
2020/12/19 17:32:22;;;;;;;16.75;10.23;;;5.30;99.90;;;;;;10293111;28;20113;-69
2020/12/19 17:37:24;;;;;;;15.90;10.02;;;5.20;99.90;;;;;;10298223;28;20049;-68
2020/12/19 17:42:25;;;;;;;14.27;10.25;;;5.20;99.90;;;;;;10288639;28;20473;-67
2020/12/19 17:47:37;;;;;;;15.00;10.43;;;5.20;99.90;;;;;;10290437;28;20046;-68
2020/12/19 17:52:39;;;;;;;23.45;11.23;;;5.10;99.90;;;;;;10290703;28;20114;-68
2020/12/19 17:57:41;;;;;;;18.90;10.80;;;5.10;99.90;;;;;;10296342;28;20046;-67
2020/12/19 18:02:42;;;;;;;15.48;10.60;;;5.00;99.90;;;;;;10296292;28;20133;-67
2020/12/19 18:07:43;;;;;;;15.77;10.45;;;4.90;99.90;;;;;;10291581;28;20077;-67
2020/12/19 18:12:45;;;;;;;17.95;10.85;;;4.80;99.90;;;;;;10294176;28;20046;-67
2020/12/19 18:17:57;;;;;;;19.15;9.48;;;4.80;99.90;;;;;;10293196;28;20046;-68
2020/12/19 18:22:58;;;;;;;24.60;15.20;;;4.70;99.90;;;;;;10288030;28;20505;-68
2020/12/19 18:28:00;;;;;;;23.42;15.00;;;4.70;99.90;;;;;;10287510;28;20046;-68
2020/12/19 18:33:02;;;;;;;21.33;13.38;;;4.60;99.90;;;;;;10296749;28;20944;-68
2020/12/19 18:38:04;;;;;;;20.67;12.57;;;4.50;99.90;;;;;;10307287;28;20050;-68
2020/12/19 18:43:06;;;;;;;19.92;12.18;;;4.40;99.90;;;;;;10294587;28;20050;-68
2020/12/19 18:48:14;;;;;;;14.95;10.77;;;4.40;99.90;;;;;;10294745;28;20054;-67
2020/12/19 18:53:16;;;;;;;23.25;14.27;;;4.30;99.90;;;;;;10292934;28;20050;-68
2020/12/19 18:58:17;;;;;;;31.80;16.65;;;4.20;99.90;;;;;;10289429;28;20050;-68
2020/12/19 19:03:19;;;;;;;30.33;17.17;;;4.20;99.90;;;;;;10307275;28;20145;-65
2020/12/19 19:08:20;;;;;;;29.85;17.80;;;4.10;99.90;;;;;;10303887;28;20042;-65
2020/12/19 19:13:22;;;;;;;16.85;10.30;;;4.10;99.90;;;;;;10292908;28;20638;-65
2020/12/19 19:18:33;;;;;;;22.35;13.50;;;4.10;99.90;;;;;;10289336;28;20113;-66
2020/12/19 19:23:34;;;;;;;18.73;11.65;;;4.20;99.90;;;;;;10292983;28;20038;-66
2020/12/19 19:28:36;;;;;;;17.85;11.20;;;4.30;99.90;;;;;;10292691;28;20039;-66
2020/12/19 19:33:38;;;;;;;17.77;11.30;;;4.40;99.90;;;;;;10289604;28;20046;-66
2020/12/19 19:38:40;;;;;;;16.13;10.77;;;4.50;99.90;;;;;;10289385;28;20583;-65
2020/12/19 19:43:42;;;;;;;20.77;12.45;;;4.50;99.90;;;;;;10285920;28;20054;-65
2020/12/19 19:48:51;;;;;;;18.80;11.45;;;4.60;99.90;;;;;;10289647;28;20050;-65
2020/12/19 19:53:53;;;;;;;17.48;10.85;;;4.60;99.90;;;;;;10296318;28;20050;-65
2020/12/19 19:58:54;;;;;;;22.27;13.10;;;4.70;99.90;;;;;;10299943;28;20058;-65
2020/12/19 20:03:56;;;;;;;18.30;12.40;;;4.80;99.90;;;;;;10299886;28;20057;-65
2020/12/19 20:08:57;;;;;;;21.38;13.77;;;4.80;99.90;;;;;;10300514;28;20072;-65
2020/12/19 20:13:59;;;;;;;23.58;14.65;;;4.90;99.90;;;;;;10299039;28;20501;-66
2020/12/19 20:19:10;;;;;;;18.65;13.15;;;5.00;99.90;;;;;;10293762;28;20047;-66
2020/12/19 20:24:12;;;;;;;18.20;12.07;;;5.00;99.90;;;;;;10293405;28;20464;-66
2020/12/19 20:29:13;;;;;;;19.13;12.60;;;5.10;99.90;;;;;;10292472;28;20061;-66
2020/12/19 20:34:15;;;;;;;18.27;12.82;;;5.20;99.90;;;;;;10299783;28;20065;-66
2020/12/19 20:39:16;;;;;;;16.75;11.50;;;5.30;99.90;;;;;;10299024;28;20465;-66
2020/12/19 20:44:18;;;;;;;19.70;13.27;;;5.30;99.90;;;;;;10299691;28;20057;-65
2020/12/19 20:49:30;;;;;;;19.40;13.07;;;5.30;99.90;;;;;;10292965;28;20081;-66
2020/12/19 20:54:31;;;;;;;17.05;12.25;;;5.40;99.90;;;;;;10300554;28;20038;-66
2020/12/19 20:59:35;;;;;;;16.80;11.32;;;5.40;99.90;;;;;;10297375;28;20065;-67
2020/12/19 21:04:37;;;;;;;15.20;10.00;;;5.40;99.90;;;;;;10297323;28;20489;-66
2020/12/19 21:09:39;;;;;;;18.17;10.30;;;5.30;99.90;;;;;;10296261;28;20291;-67
2020/12/19 21:14:41;;;;;;;15.00;10.30;;;5.40;99.90;;;;;;10298805;28;20053;-67
2020/12/19 21:19:48;;;;;;;17.92;11.77;;;5.30;99.90;;;;;;10316372;28;20137;-66
2020/12/19 21:24:49;;;;;;;19.42;13.20;;;5.30;99.90;;;;;;10315405;28;20133;-66
2020/12/19 21:29:51;;;;;;;17.00;11.50;;;5.40;99.90;;;;;;10296754;28;20139;-67
2020/12/19 21:34:52;;;;;;;17.15;10.88;;;5.40;99.90;;;;;;10300427;28;20489;-66
2020/12/19 21:39:53;;;;;;;14.82;10.48;;;5.30;99.90;;;;;;10296007;28;20058;-66
2020/12/19 21:44:55;;;;;;;17.27;12.18;;;5.40;99.90;;;;;;10297451;28;20049;-66
2020/12/19 21:50:06;;;;;;;16.15;11.77;;;5.30;99.90;;;;;;10312462;28;20401;-66
2020/12/19 21:55:09;;;;;;;19.33;12.95;;;5.40;99.90;;;;;;10296035;28;20050;-66
2020/12/19 22:00:16;;;;;;;18.40;12.45;;;5.40;99.90;;;;;;10296908;28;20814;-66
2020/12/19 22:05:18;;;;;;;19.73;13.43;;;5.50;99.90;;;;;;10298579;28;20660;-66
2020/12/19 22:10:20;;;;;;;22.17;13.35;;;5.50;99.90;;;;;;10293050;28;20053;-67
2020/12/19 22:15:21;;;;;;;16.20;11.85;;;5.50;99.90;;;;;;10292891;28;20057;-67
2020/12/19 22:20:24;;;;;;;18.20;12.60;;;5.50;99.90;;;;;;10295461;28;20062;-67
2020/12/19 22:25:26;;;;;;;17.42;11.15;;;5.40;99.90;;;;;;10294448;28;20062;-68
2020/12/19 22:30:27;;;;;;;18.08;12.35;;;5.50;99.90;;;;;;10291712;28;20054;-67
2020/12/19 22:35:29;;;;;;;16.90;11.68;;;5.60;99.90;;;;;;10309251;28;20042;-66
2020/12/19 22:40:30;;;;;;;14.25;10.88;;;5.50;99.90;;;;;;10289285;28;20496;-67
2020/12/19 22:45:32;;;;;;;15.50;10.50;;;5.60;99.90;;;;;;10295299;28;20058;-68
2020/12/19 22:50:45;;;;;;;14.45;9.73;;;5.60;99.90;;;;;;10290668;28;20050;-66
2020/12/19 22:56:08;;;;;;;14.80;10.88;;;5.60;99.90;;;;;;10248900;28;20412;-66
2020/12/19 23:01:10;;;;;;;17.70;12.10;;;5.60;99.90;;;;;;10290473;28;20509;-66
2020/12/19 23:06:11;;;;;;;17.65;11.45;;;5.60;99.90;;;;;;10291612;28;20636;-65
2020/12/19 23:11:14;;;;;;;16.98;11.75;;;5.50;99.90;;;;;;10290942;28;20061;-66
2020/12/19 23:16:15;;;;;;;16.42;11.68;;;5.40;99.90;;;;;;10293662;28;20045;-66
2020/12/19 23:21:19;;;;;;;15.00;10.82;;;5.40;99.90;;;;;;10287922;28;20060;-66
2020/12/19 23:26:22;;;;;;;17.00;10.68;;;5.40;99.90;;;;;;10294110;28;20057;-67
2020/12/19 23:31:24;;;;;;;15.30;10.38;;;5.40;99.90;;;;;;10305814;28;20136;-67
2020/12/19 23:36:25;;;;;;;15.73;9.95;;;5.40;99.90;;;;;;10292682;28;20042;-66
2020/12/19 23:41:27;;;;;;;16.23;11.45;;;5.40;99.90;;;;;;10288021;28;20047;-67
2020/12/19 23:46:28;;;;;;;17.08;11.25;;;5.30;99.90;;;;;;10293968;28;20520;-67
2020/12/19 23:51:31;;;;;;;17.88;12.18;;;5.40;99.90;;;;;;10290942;28;20149;-67
2020/12/19 23:56:32;;;;;;;17.20;11.25;;;5.40;99.90;;;;;;10291721;28;20105;-66
